| Date | Time | Temp. (oF) | Dew Point (oF) | Rel. Hum. (%) | Press. (in.) | Wind Dir. | Wind Speed (mph) | Hourly Rainfall (in.) |
|
|---|---|---|---|---|---|---|---|---|---|
| 1 | 10/13 | 00:00 | 65 | 58 | 79 | 30.11 | SSE | 3 | 0.00 |
| 2 | 10/12 | 23:00 | 66 | 59 | 80 | 30.12 | SE | 2 | 0.00 |
| 3 | 10/12 | 22:00 | 67 | 60 | 79 | 30.12 | SSE | 4 | 0.00 |
| 4 | 10/12 | 21:00 | 68 | 60 | 77 | 30.11 | SE | 3 | 0.00 |
| 5 | 10/12 | 20:00 | 69 | 60 | 74 | 30.10 | S | 5 | 0.00 |
| 6 | 10/12 | 19:00 | 70 | 60 | 72 | 30.08 | SSE | 4 | 0.00 |
| 7 | 10/12 | 18:00 | 72 | 60 | 68 | 30.06 | SSE | 3 | 0.00 |
| 8 | 10/12 | 17:00 | 75 | 59 | 58 | 30.05 | S | 6 | 0.00 |
| 9 | 10/12 | 16:00 | 76 | 58 | 55 | 30.06 | S | 12 | 0.00 |
| 10 | 10/12 | 15:00 | 76 | 57 | 53 | 30.08 | S | 7 | 0.00 |
| 11 | 10/12 | 14:00 | 75 | 57 | 55 | 30.10 | S | 10 | 0.00 |
| 12 | 10/12 | 13:00 | 74 | 59 | 60 | 30.13 | S | 9 | 0.00 |
| 13 | 10/12 | 12:00 | 69 | 58 | 70 | 30.16 | SSW | 1 | 0.00 |
| 14 | 10/12 | 11:00 | 66 | 58 | 76 | 30.17 | SSW | 4 | 0.00 |
| 15 | 10/12 | 10:00 | 61 | 57 | 87 | 30.19 | SSE | 1 | 0.00 |
| 16 | 10/12 | 09:00 | 57 | 55 | 95 | 30.20 | ESE | 0 | 0.00 |
| 17 | 10/12 | 08:00 | 53 | 51 | 93 | 30.19 | N | 0 | 0.00 |
| 18 | 10/12 | 07:00 | 52 | 50 | 93 | 30.18 | NNE | 0 | 0.00 |
| 19 | 10/12 | 06:00 | 53 | 50 | 92 | 30.18 | NNW | 0 | 0.00 |
| 20 | 10/12 | 05:00 | 55 | 52 | 92 | 30.18 | NW | 0 | 0.00 |
| 21 | 10/12 | 04:00 | 56 | 53 | 90 | 30.16 | N | 0 | 0.00 |
| 22 | 10/12 | 03:00 | 58 | 53 | 86 | 30.18 | SW | 0 | 0.00 |
| 23 | 10/12 | 02:00 | 59 | 54 | 86 | 30.19 | SW | 1 | 0.00 |
| 24 | 10/12 | 01:00 | 61 | 55 | 83 | 30.19 | S | 1 | 0.00 |